Time;durP1;ratioP1;P1;durP2;ratioP2;P2;SDS_P1;SDS_P2;PMS_P1;PMS_P2;Temp;Humidity;BMP_temperature;BMP_pressure;BME280_temperature;BME280_humidity;BME280_pressure;Samples;Min_cycle;Max_cycle;Signal;HPM_P1;HPM_P2
2021/11/06 00:01:20;;;;;;;19.25;7.38;;;;;;;8.07;100.00;101664.19;5196281;28;20538;-78
2021/11/06 00:03:51;;;;;;;17.42;7.32;;;;;;;8.05;100.00;101660.75;5197290;28;20021;-78
2021/11/06 00:06:21;;;;;;;20.23;7.30;;;;;;;8.09;100.00;101672.91;5196041;28;20556;-78
2021/11/06 00:08:51;;;;;;;17.13;7.07;;;;;;;8.02;100.00;101666.00;5200252;28;20037;-78
2021/11/06 00:11:22;;;;;;;15.20;6.45;;;;;;;8.02;100.00;101671.19;5201665;28;20032;-78
2021/11/06 00:13:52;;;;;;;16.85;6.13;;;;;;;8.09;100.00;101672.91;5197408;28;20492;-79
2021/11/06 00:16:22;;;;;;;17.38;7.05;;;;;;;8.03;100.00;101665.13;5201933;28;20033;-78
2021/11/06 00:18:53;;;;;;;19.85;6.47;;;;;;;8.01;100.00;101679.88;5199479;28;20389;-78
2021/11/06 00:21:23;;;;;;;24.15;7.63;;;;;;;8.02;100.00;101668.59;5203356;28;20048;-78
2021/11/06 00:23:53;;;;;;;15.77;6.45;;;;;;;8.02;100.00;101671.19;5197290;28;20018;-78
2021/11/06 00:26:24;;;;;;;14.27;6.53;;;;;;;8.04;100.00;101673.81;5190366;28;20440;-78
2021/11/06 00:28:54;;;;;;;14.95;5.97;;;;;;;8.03;100.00;101672.94;5205436;28;20025;-78
2021/11/06 00:31:24;;;;;;;14.43;6.30;;;;;;;8.11;100.00;101665.94;5202878;28;20030;-79
2021/11/06 00:33:54;;;;;;;13.82;6.28;;;;;;;8.08;100.00;101670.28;5206926;28;20099;-79
2021/11/06 00:36:25;;;;;;;14.05;5.72;;;;;;;8.16;100.00;101666.75;5205064;28;20025;-79
2021/11/06 00:38:55;;;;;;;11.63;5.97;;;;;;;8.19;100.00;101661.53;5209108;28;20383;-79
2021/11/06 00:41:25;;;;;;;12.90;5.15;;;;;;;8.16;100.00;101674.56;5204604;28;20035;-78
2021/11/06 00:43:56;;;;;;;14.48;6.07;;;;;;;8.18;100.00;101670.22;5190044;28;20026;-78
2021/11/06 00:46:26;;;;;;;10.77;5.38;;;;;;;8.20;100.00;101670.22;5199429;28;20111;-78
2021/11/06 00:48:57;;;;;;;13.30;5.25;;;;;;;8.25;100.00;101668.44;5195086;28;20052;-78
2021/11/06 00:51:27;;;;;;;14.13;5.70;;;;;;;8.22;100.00;101671.09;5199937;28;20028;-78
2021/11/06 00:53:57;;;;;;;11.45;5.65;;;;;;;8.32;100.00;101680.53;5192182;28;20109;-79
2021/11/06 00:56:27;;;;;;;14.68;5.90;;;;;;;8.28;100.00;101681.44;5188443;28;20029;-80
2021/11/06 00:58:58;;;;;;;9.88;5.13;;;;;;;8.29;100.00;101698.78;5201046;28;20029;-78
2021/11/06 01:01:28;;;;;;;12.85;6.15;;;;;;;8.29;100.00;101686.66;5198761;28;20101;-79
2021/11/06 01:03:58;;;;;;;14.32;5.97;;;;;;;8.25;100.00;101690.13;5201598;28;20026;-79
2021/11/06 01:06:29;;;;;;;12.30;5.47;;;;;;;8.30;100.00;101695.31;5199683;28;20040;-79
2021/11/06 01:08:59;;;;;;;14.00;6.50;;;;;;;8.26;100.00;101693.59;5204025;28;20034;-79
2021/11/06 01:11:29;;;;;;;12.82;5.38;;;;;;;8.25;100.00;101691.88;5205928;28;20037;-78
2021/11/06 01:14:00;;;;;;;11.80;5.78;;;;;;;8.25;100.00;101684.91;5201783;28;20507;-78
2021/11/06 01:16:30;;;;;;;13.27;5.65;;;;;;;8.23;100.00;101686.66;5210479;28;20018;-78
2021/11/06 01:19:00;;;;;;;12.93;6.18;;;;;;;8.31;100.00;101690.09;5207162;28;20534;-79
2021/11/06 01:21:31;;;;;;;12.35;5.75;;;;;;;8.33;100.00;101688.34;5211650;28;20021;-79
2021/11/06 01:24:01;;;;;;;13.80;5.93;;;;;;;8.31;100.00;101692.69;5202131;28;20026;-78
2021/11/06 01:26:32;;;;;;;15.15;6.13;;;;;;;8.30;100.00;101692.69;5189659;28;20400;-78
2021/11/06 01:29:03;;;;;;;12.23;6.18;;;;;;;8.32;100.00;101686.59;5199902;28;20029;-78
2021/11/06 01:31:33;;;;;;;12.65;6.07;;;;;;;8.32;100.00;101688.34;5199072;28;20042;-78
2021/11/06 01:34:04;;;;;;;12.95;6.15;;;;;;;8.28;100.00;101689.25;5200989;28;20112;-78
2021/11/06 01:36:34;;;;;;;10.77;5.82;;;;;;;8.28;100.00;101689.25;5200146;28;20037;-78
2021/11/06 01:39:04;;;;;;;11.27;5.25;;;;;;;8.30;100.00;101684.88;5192493;28;20129;-78
2021/11/06 01:41:35;;;;;;;12.70;5.18;;;;;;;8.32;100.00;101696.16;5191003;28;20040;-79
2021/11/06 01:44:05;;;;;;;13.05;5.53;;;;;;;8.36;100.00;101690.91;5199659;28;20029;-78
2021/11/06 01:46:36;;;;;;;11.70;5.43;;;;;;;8.38;100.00;101694.34;5202213;28;20034;-78
2021/11/06 01:49:07;;;;;;;10.70;5.18;;;;;;;8.31;100.00;101700.50;5203355;28;20018;-78
2021/11/06 01:51:37;;;;;;;8.95;4.93;;;;;;;8.31;100.00;101695.31;5206070;28;20037;-78
2021/11/06 01:54:07;;;;;;;11.95;5.55;;;;;;;8.28;100.00;101697.94;5215958;23;20037;-89
2021/11/06 01:56:38;;;;;;;12.65;5.20;;;;;;;8.28;100.00;101689.25;5218269;28;20025;-89
2021/11/06 01:59:09;;;;;;;11.48;5.00;;;;;;;8.37;100.00;101684.81;5225262;28;20082;-89
2021/11/06 02:01:40;;;;;;;11.13;5.18;;;;;;;8.30;100.00;101675.34;5217863;28;20032;-89
2021/11/06 02:04:10;;;;;;;9.77;4.82;;;;;;;8.32;100.00;101681.41;5216564;28;20035;-89
2021/11/06 02:06:43;;;;;;;11.60;5.18;;;;;;;8.33;100.00;101682.25;5221113;28;20033;-88
2021/11/06 02:09:14;;;;;;;15.02;5.28;;;;;;;8.27;100.00;101677.97;5221113;28;20044;-90
2021/11/06 02:11:44;;;;;;;15.77;5.72;;;;;;;8.29;100.00;101676.22;5219558;28;20032;-89
2021/11/06 02:14:18;;;;;;;14.27;6.30;;;;;;;8.28;100.00;101674.50;5219499;28;20040;-88
2021/11/06 02:16:48;;;;;;;13.20;5.90;;;;;;;8.26;100.00;101680.59;5219902;28;20025;-89
2021/11/06 02:19:30;;;;;;;12.88;4.88;;;;;;;8.20;100.00;101683.25;5222667;28;20024;-89
2021/11/06 02:22:00;;;;;;;11.27;4.82;;;;;;;8.20;100.00;101671.09;5212284;28;20698;-89
2021/11/06 02:24:31;;;;;;;10.57;5.00;;;;;;;8.13;100.00;101671.09;5221232;28;20045;-89
2021/11/06 02:27:01;;;;;;;14.02;5.15;;;;;;;8.14;100.00;101671.09;5218002;28;20035;-88
2021/11/06 02:29:35;;;;;;;9.95;4.55;;;;;;;8.12;100.00;101675.47;5218422;28;20021;-88
2021/11/06 02:32:07;;;;;;;11.45;4.40;;;;;;;8.14;100.00;101673.72;5223329;28;20029;-89
2021/11/06 02:34:38;;;;;;;12.38;4.68;;;;;;;8.13;100.00;101679.78;5217966;28;20547;-90
2021/11/06 02:37:08;;;;;;;14.65;5.10;;;;;;;8.11;100.00;101693.69;5219718;28;20025;-89
2021/11/06 02:39:39;;;;;;;9.65;4.50;;;;;;;8.13;100.00;101694.53;5216354;28;20546;-89
2021/11/06 02:42:10;;;;;;;12.13;5.05;;;;;;;8.15;100.00;101695.38;5216152;28;20025;-88
2021/11/06 02:44:40;;;;;;;9.80;4.75;;;;;;;8.08;100.00;101681.56;5222814;28;20098;-88
2021/11/06 02:47:11;;;;;;;12.25;4.85;;;;;;;8.17;100.00;101689.31;5223599;28;20032;-88
2021/11/06 02:49:41;;;;;;;10.48;4.60;;;;;;;8.15;100.00;101690.19;5220807;28;20036;-89
2021/11/06 02:52:12;;;;;;;14.70;4.57;;;;;;;8.21;100.00;101692.78;5218963;28;20067;-88
2021/11/06 02:54:42;;;;;;;9.18;4.35;;;;;;;8.15;100.00;101692.78;5214520;28;20041;-89
2021/11/06 02:57:13;;;;;;;8.30;4.35;;;;;;;8.21;100.00;101698.84;5214078;28;20021;-89
2021/11/06 02:59:43;;;;;;;11.43;4.80;;;;;;;8.19;100.00;101700.59;5221129;28;20052;-90
2021/11/06 03:02:14;;;;;;;12.68;5.10;;;;;;;8.19;100.00;101700.59;5221259;28;20587;-89
2021/11/06 03:04:44;;;;;;;9.80;4.90;;;;;;;8.22;100.00;101692.75;5214974;28;20025;-88
2021/11/06 03:07:14;;;;;;;16.08;4.95;;;;;;;8.21;100.00;101683.22;5223274;28;20123;-89
2021/11/06 03:09:45;;;;;;;12.40;5.28;;;;;;;8.22;100.00;101692.75;5224051;28;20090;-89
2021/11/06 03:12:16;;;;;;;9.15;4.80;;;;;;;8.24;100.00;101693.59;5219805;28;20033;-89
2021/11/06 03:14:46;;;;;;;12.23;5.03;;;;;;;8.33;100.00;101696.16;5217710;28;20045;-88
2021/11/06 03:17:17;;;;;;;10.43;5.30;;;;;;;8.26;100.00;101693.59;5220841;28;20032;-89
2021/11/06 03:19:47;;;;;;;11.00;4.80;;;;;;;8.19;100.00;101695.41;5218277;28;20025;-89
2021/11/06 03:22:18;;;;;;;9.77;4.80;;;;;;;8.12;100.00;101691.09;5217474;28;20087;-89
2021/11/06 03:24:48;;;;;;;10.27;4.80;;;;;;;8.26;100.00;101693.59;5213091;28;20048;-88
2021/11/06 03:27:19;;;;;;;11.18;5.07;;;;;;;8.36;100.00;101693.50;5214417;28;20028;-89
2021/11/06 03:29:50;;;;;;;12.90;5.13;;;;;;;8.31;100.00;101692.69;5225216;28;20025;-89
2021/11/06 03:32:26;;;;;;;9.90;4.93;;;;;;;8.33;100.00;101692.66;5221116;28;20021;-88
2021/11/06 03:34:59;;;;;;;9.48;5.10;;;;;;;8.31;100.00;101695.31;5214829;28;20056;-88
2021/11/06 03:37:29;;;;;;;11.55;5.15;;;;;;;8.29;100.00;101685.75;5216579;28;20037;-88
2021/11/06 03:40:04;;;;;;;13.57;5.55;;;;;;;8.32;100.00;101696.16;5214740;28;20029;-89
2021/11/06 03:42:35;;;;;;;10.73;4.37;;;;;;;8.34;100.00;101692.66;5211313;22;20049;-78
2021/11/06 03:45:06;;;;;;;10.20;4.97;;;;;;;8.37;100.00;101700.44;5193317;28;20396;-79
2021/11/06 03:47:37;;;;;;;10.38;5.10;;;;;;;8.50;100.00;101701.19;5194147;28;20028;-78
2021/11/06 03:50:09;;;;;;;11.48;5.38;;;;;;;8.42;100.00;101696.06;5193576;28;20026;-78
2021/11/06 03:52:40;;;;;;;12.10;5.20;;;;;;;8.33;100.00;101708.28;5193697;28;20512;-78
2021/11/06 03:55:11;;;;;;;12.85;5.90;;;;;;;8.34;100.00;101703.09;5207102;22;20526;-80
2021/11/06 03:57:41;;;;;;;12.85;6.07;;;;;;;8.33;100.00;101708.28;5192752;28;20033;-80
2021/11/06 04:00:15;;;;;;;10.48;5.18;;;;;;;8.35;100.00;101702.19;5195506;28;20028;-79
2021/11/06 04:02:46;;;;;;;11.02;5.25;;;;;;;8.39;100.00;101703.91;5194309;28;20423;-81
2021/11/06 04:05:17;;;;;;;13.40;5.68;;;;;;;8.38;100.00;101699.56;5194565;28;20387;-80
2021/11/06 04:07:47;;;;;;;12.82;5.80;;;;;;;8.46;100.00;101703.00;5195474;28;20087;-81
2021/11/06 04:10:17;;;;;;;10.32;5.65;;;;;;;8.43;100.00;101703.03;5197637;28;20048;-81
2021/11/06 04:12:48;;;;;;;11.00;5.90;;;;;;;8.47;100.00;101702.09;5194993;28;20040;-78
2021/11/06 04:15:18;;;;;;;12.25;5.60;;;;;;;8.50;100.00;101704.69;5196117;28;20029;-80
2021/11/06 04:17:50;;;;;;;12.65;6.50;;;;;;;8.47;100.00;101704.72;5195754;28;20036;-78
2021/11/06 04:20:20;;;;;;;12.55;5.68;;;;;;;8.47;100.00;101694.28;5194959;28;20124;-81
2021/11/06 04:22:51;;;;;;;9.23;5.20;;;;;;;8.44;100.00;101690.84;5189225;28;20455;-80
2021/11/06 04:25:21;;;;;;;11.30;5.25;;;;;;;8.43;100.00;101703.03;5180440;28;20121;-79
2021/11/06 04:27:51;;;;;;;10.18;4.90;;;;;;;8.49;100.00;101705.56;5187550;28;20076;-79
2021/11/06 04:30:22;;;;;;;11.00;5.13;;;;;;;8.47;100.00;101702.09;5189212;28;20021;-80
2021/11/06 04:32:52;;;;;;;9.95;5.60;;;;;;;8.49;100.00;101702.06;5190052;28;20471;-80
2021/11/06 04:35:23;;;;;;;12.45;5.18;;;;;;;8.42;100.00;101703.88;5188934;28;20061;-80
2021/11/06 04:37:53;;;;;;;9.70;5.30;;;;;;;8.40;100.00;101707.38;5189386;28;20095;-79
2021/11/06 04:40:23;;;;;;;11.35;5.22;;;;;;;8.41;100.00;101704.75;5193717;28;20053;-79
2021/11/06 04:42:54;;;;;;;11.32;5.35;;;;;;;8.42;100.00;101703.03;5188070;28;20069;-79
2021/11/06 04:45:24;;;;;;;11.90;5.45;;;;;;;8.40;100.00;101717.81;5191551;28;20045;-80
2021/11/06 04:47:54;;;;;;;10.23;4.97;;;;;;;8.48;100.00;101708.16;5188068;28;20030;-80
2021/11/06 04:50:25;;;;;;;7.32;4.45;;;;;;;8.44;100.00;101712.56;5195692;28;20156;-80
2021/11/06 04:52:55;;;;;;;9.07;4.78;;;;;;;8.48;100.00;101719.47;5192015;28;20513;-78
2021/11/06 04:55:26;;;;;;;12.05;5.20;;;;;;;8.42;100.00;101721.25;5182176;28;20021;-80
2021/11/06 04:57:56;;;;;;;10.20;5.10;;;;;;;8.32;100.00;101722.19;5191513;28;20033;-80
2021/11/06 05:00:26;;;;;;;9.88;5.57;;;;;;;8.39;100.00;101724.72;5187846;28;20057;-80
2021/11/06 05:02:57;;;;;;;8.77;4.90;;;;;;;8.43;100.00;101723.84;5195882;28;20026;-80
2021/11/06 05:05:27;;;;;;;10.43;5.03;;;;;;;8.39;100.00;101726.50;5191424;28;20041;-80
2021/11/06 05:07:57;;;;;;;10.30;5.25;;;;;;;8.37;100.00;101725.66;5194418;28;20110;-80
2021/11/06 05:10:28;;;;;;;10.43;5.28;;;;;;;8.38;100.00;101732.59;5197823;28;20021;-79
2021/11/06 05:12:58;;;;;;;9.55;5.10;;;;;;;8.36;100.00;101736.94;5191958;28;20025;-78
2021/11/06 05:15:29;;;;;;;10.10;5.10;;;;;;;8.38;100.00;101732.59;5195093;28;20068;-79
2021/11/06 05:18:00;;;;;;;9.15;5.30;;;;;;;8.36;100.00;101727.38;5191701;28;20109;-80
2021/11/06 05:20:32;;;;;;;9.70;5.30;;;;;;;8.38;100.00;101732.59;5194883;28;20104;-77
2021/11/06 05:23:02;;;;;;;10.30;4.95;;;;;;;8.35;100.00;101743.88;5192823;28;20105;-80
2021/11/06 05:25:32;;;;;;;14.32;5.72;;;;;;;8.42;100.00;101740.34;5182830;28;20551;-79
2021/11/06 05:28:03;;;;;;;8.73;5.00;;;;;;;8.41;100.00;101733.41;5191043;28;20040;-80
2021/11/06 05:30:33;;;;;;;8.65;5.40;;;;;;;8.35;100.00;101735.22;5192348;28;20033;-80
2021/11/06 05:33:04;;;;;;;8.10;5.15;;;;;;;8.33;100.00;101740.44;5194039;28;20032;-80
2021/11/06 05:35:35;;;;;;;10.90;5.78;;;;;;;8.29;100.00;101733.53;5191679;28;20514;-80
2021/11/06 05:38:05;;;;;;;9.90;5.50;;;;;;;8.25;100.00;101731.78;5193869;28;20026;-80
2021/11/06 05:40:36;;;;;;;9.90;5.13;;;;;;;8.26;100.00;101733.56;5195612;28;20029;-80
2021/11/06 05:43:06;;;;;;;11.60;5.97;;;;;;;8.21;100.00;101730.09;5192293;28;20044;-81
2021/11/06 05:45:36;;;;;;;8.73;5.35;;;;;;;8.29;100.00;101732.63;5193109;28;20130;-79
2021/11/06 05:48:07;;;;;;;10.80;5.25;;;;;;;8.23;100.00;101728.34;5192858;28;20017;-79
2021/11/06 05:50:37;;;;;;;10.52;5.38;;;;;;;8.19;100.00;101731.84;5193535;28;20093;-79
2021/11/06 05:53:08;;;;;;;9.75;5.30;;;;;;;8.20;100.00;101733.56;5192327;28;20105;-79
2021/11/06 05:55:38;;;;;;;8.70;5.68;;;;;;;8.21;100.00;101724.03;5182502;28;20491;-80
2021/11/06 05:58:09;;;;;;;8.95;6.03;;;;;;;8.21;100.00;101721.44;5190992;28;20025;-80
2021/11/06 06:00:40;;;;;;;8.88;5.38;;;;;;;8.24;100.00;101719.66;5192567;28;20032;-80
2021/11/06 06:03:11;;;;;;;9.57;5.63;;;;;;;8.29;100.00;101717.00;5193162;28;20064;-80
2021/11/06 06:05:41;;;;;;;8.50;5.15;;;;;;;8.32;100.00;101717.88;5193329;28;20057;-80
2021/11/06 06:08:11;;;;;;;11.50;5.70;;;;;;;8.23;100.00;101722.28;5193453;28;20061;-80
2021/11/06 06:10:42;;;;;;;7.93;5.28;;;;;;;8.13;100.00;101721.47;5195449;28;20031;-80
2021/11/06 06:13:12;;;;;;;12.40;5.65;;;;;;;8.09;100.00;101714.56;5193261;28;20438;-79
2021/11/06 06:15:42;;;;;;;10.73;5.32;;;;;;;8.07;100.00;101716.28;5193152;28;20056;-80
2021/11/06 06:18:12;;;;;;;8.82;5.47;;;;;;;8.03;100.00;101719.78;5192017;28;20113;-80
2021/11/06 06:20:43;;;;;;;11.52;5.85;;;;;;;8.03;100.00;101714.56;5192415;28;20403;-80
2021/11/06 06:23:14;;;;;;;10.63;5.63;;;;;;;8.10;100.00;101716.28;5192203;28;20055;-81
2021/11/06 06:25:44;;;;;;;11.32;5.63;;;;;;;8.11;100.00;101707.59;5181820;28;20030;-80
2021/11/06 06:28:15;;;;;;;10.15;5.72;;;;;;;8.07;100.00;101713.66;5191075;28;20021;-80
2021/11/06 06:30:45;;;;;;;9.68;5.70;;;;;;;8.03;100.00;101706.75;5193376;28;20026;-80
2021/11/06 06:33:16;;;;;;;8.65;5.32;;;;;;;8.06;100.00;101714.53;5191803;28;20380;-79
2021/11/06 06:35:46;;;;;;;9.90;5.20;;;;;;;8.11;100.00;101712.81;5192530;28;20064;-80
2021/11/06 06:38:16;;;;;;;9.48;5.68;;;;;;;8.14;100.00;101717.09;5193658;28;20029;-78
2021/11/06 06:40:47;;;;;;;8.75;5.43;;;;;;;8.08;100.00;101722.38;5194027;28;20044;-77
2021/11/06 06:43:17;;;;;;;11.80;5.82;;;;;;;8.12;100.00;101724.06;5192807;28;20124;-78
2021/11/06 06:45:47;;;;;;;10.73;5.50;;;;;;;8.06;100.00;101721.50;5191202;28;20029;-80
2021/11/06 06:48:18;;;;;;;9.07;5.53;;;;;;;8.10;100.00;101716.28;5191627;28;20018;-80
2021/11/06 06:50:50;;;;;;;14.85;6.15;;;;;;;7.95;100.00;101716.38;5190917;28;20051;-80
2021/11/06 06:53:21;;;;;;;9.52;5.95;;;;;;;7.96;100.00;101717.22;5187764;28;20017;-80
2021/11/06 06:55:52;;;;;;;11.50;5.60;;;;;;;7.98;100.00;101720.69;5181548;28;20041;-78
2021/11/06 06:58:22;;;;;;;12.05;5.68;;;;;;;8.07;100.00;101724.09;5188149;28;20040;-80
2021/11/06 07:00:52;;;;;;;8.65;5.22;;;;;;;8.04;100.00;101725.88;5190095;28;20028;-79
2021/11/06 07:03:22;;;;;;;14.90;5.30;;;;;;;8.08;100.00;101730.16;5193599;28;20037;-78
2021/11/06 07:05:53;;;;;;;9.95;5.63;;;;;;;8.04;100.00;101725.88;5189595;28;20028;-79
2021/11/06 07:08:23;;;;;;;10.77;5.10;;;;;;;8.14;100.00;101731.00;5194570;28;20049;-78
2021/11/06 07:10:53;;;;;;;11.27;5.03;;;;;;;8.04;100.00;101737.13;5191910;28;20037;-78
2021/11/06 07:13:24;;;;;;;11.18;5.50;;;;;;;8.03;100.00;101730.19;5193634;28;20037;-79
2021/11/06 07:15:54;;;;;;;10.15;5.32;;;;;;;8.18;100.00;101732.72;5189611;28;20069;-77
2021/11/06 07:18:25;;;;;;;14.68;5.80;;;;;;;8.21;100.00;101737.91;5189355;28;20104;-79
2021/11/06 07:20:55;;;;;;;13.02;5.35;;;;;;;8.27;100.00;101739.59;5188787;28;20079;-80
2021/11/06 07:23:25;;;;;;;16.00;5.47;;;;;;;8.22;100.00;101741.38;5189657;28;20026;-80
2021/11/06 07:26:00;;;;;;;10.93;4.93;;;;;;;8.24;100.00;101740.47;5181287;28;20033;-79
2021/11/06 07:28:31;;;;;;;9.82;4.93;;;;;;;8.33;100.00;101739.53;5186116;28;20025;-79
2021/11/06 07:31:02;;;;;;;9.40;4.40;;;;;;;8.35;100.00;101754.28;5192392;28;20026;-80
2021/11/06 07:33:32;;;;;;;8.05;4.40;;;;;;;8.47;100.00;101749.00;5188318;28;20033;-78
2021/11/06 07:36:03;;;;;;;8.90;4.25;;;;;;;8.49;100.00;101742.03;5191899;28;20390;-79
2021/11/06 07:38:33;;;;;;;10.25;4.13;;;;;;;8.78;100.00;101750.47;5192151;28;20044;-78
2021/11/06 07:41:03;;;;;;;9.40;4.30;;;;;;;8.98;100.00;101753.72;5191599;28;20029;-79
2021/11/06 07:43:37;;;;;;;10.07;4.88;;;;;;;8.90;100.00;101760.75;5191387;28;20054;-78
2021/11/06 07:46:08;;;;;;;11.60;4.70;;;;;;;8.91;100.00;101759.88;5186744;28;20493;-80
2021/11/06 07:48:39;;;;;;;9.75;4.70;;;;;;;9.10;100.00;101755.34;5188365;28;20033;-80
2021/11/06 07:51:09;;;;;;;9.60;4.55;;;;;;;9.43;100.00;101747.97;5190265;28;20499;-78
2021/11/06 07:53:39;;;;;;;11.82;4.47;;;;;;;9.77;100.00;101747.53;5189487;28;20199;-81
2021/11/06 07:56:10;;;;;;;10.63;4.43;;;;;;;9.79;100.00;101757.97;5184376;28;20036;-82
2021/11/06 07:58:41;;;;;;;8.77;3.90;;;;;;;9.91;99.86;101749.94;5194697;28;20053;-80
2021/11/06 08:01:12;;;;;;;8.88;3.58;;;;;;;10.11;97.44;101751.44;5195306;28;20116;-81
2021/11/06 08:03:42;;;;;;;7.85;3.65;;;;;;;10.89;96.22;101744.03;5194859;28;20148;-79
2021/11/06 08:06:13;;;;;;;7.85;3.45;;;;;;;10.51;95.11;101747.28;5193495;28;20406;-81
2021/11/06 08:08:43;;;;;;;6.05;2.97;;;;;;;10.30;95.69;101739.81;5197337;28;20042;-79
2021/11/06 08:11:14;;;;;;;4.97;2.65;;;;;;;10.00;96.59;101758.50;5193923;28;20045;-80
2021/11/06 08:13:44;;;;;;;6.78;2.80;;;;;;;9.93;97.52;101756.88;5194062;28;20037;-78
2021/11/06 08:16:15;;;;;;;5.93;3.03;;;;;;;9.86;98.69;101750.00;5195495;28;20204;-80
2021/11/06 08:18:45;;;;;;;6.75;2.80;;;;;;;9.70;98.66;101747.63;5189244;28;20115;-78
2021/11/06 08:21:17;;;;;;;6.22;2.95;;;;;;;9.63;99.55;101738.19;5189294;28;20053;-81
2021/11/06 08:23:47;;;;;;;4.85;2.50;;;;;;;9.66;100.00;101744.19;5187973;28;20084;-78
2021/11/06 08:26:17;;;;;;;6.78;2.60;;;;;;;9.64;100.00;101750.34;5193814;28;20021;-81
2021/11/06 08:28:48;;;;;;;7.72;2.53;;;;;;;9.65;100.00;101750.31;5191959;28;20420;-79
2021/11/06 08:31:19;;;;;;;5.88;2.38;;;;;;;9.80;99.82;101751.88;5199939;28;20529;-80
2021/11/06 08:33:49;;;;;;;4.65;2.63;;;;;;;9.81;99.37;101748.38;5191141;28;20372;-80
2021/11/06 08:36:20;;;;;;;6.55;2.85;;;;;;;10.04;98.40;101741.09;5184049;28;20041;-79
2021/11/06 08:38:50;;;;;;;8.82;2.72;;;;;;;10.04;98.20;101747.19;5188034;28;20122;-79
2021/11/06 08:41:20;;;;;;;5.40;2.75;;;;;;;9.76;98.37;101748.44;5182217;28;20041;-79
2021/11/06 08:43:51;;;;;;;3.90;2.40;;;;;;;9.82;99.20;101737.88;5183888;28;20631;-79
2021/11/06 08:46:21;;;;;;;8.45;2.33;;;;;;;9.75;100.00;101738.88;5184334;28;20184;-79
2021/11/06 08:48:52;;;;;;;5.75;2.40;;;;;;;9.60;100.00;101738.19;5195354;28;20100;-81
2021/11/06 08:51:22;;;;;;;7.13;2.47;;;;;;;9.68;100.00;101745.03;5195724;28;20021;-78
2021/11/06 08:53:53;;;;;;;6.15;2.33;;;;;;;9.79;100.00;101737.09;5189777;28;20045;-81
2021/11/06 08:56:28;;;;;;;7.97;2.45;;;;;;;9.78;100.00;101732.72;5183323;28;20026;-80
2021/11/06 08:58:58;;;;;;;7.73;2.33;;;;;;;10.08;100.00;101732.31;5190660;28;20037;-81
2021/11/06 09:01:29;;;;;;;6.15;2.45;;;;;;;10.13;100.00;101735.75;5184779;28;20494;-81
2021/11/06 09:03:59;;;;;;;6.40;2.38;;;;;;;10.18;98.29;101723.47;5183352;28;20030;-80
2021/11/06 09:06:33;;;;;;;8.35;1.98;;;;;;;10.31;97.34;101732.84;5187024;28;20017;-77
2021/11/06 09:09:06;;;;;;;5.03;2.17;;;;;;;10.16;98.31;101723.47;5189417;28;20021;-79
2021/11/06 09:11:38;;;;;;;6.47;2.30;;;;;;;10.23;97.27;101724.25;5189861;28;20046;-80
2021/11/06 09:14:09;;;;;;;4.85;2.30;;;;;;;10.41;96.22;101723.94;5182565;28;20072;-80
2021/11/06 09:16:40;;;;;;;6.40;2.08;;;;;;;10.65;96.43;101710.47;5183934;28;20022;-80
2021/11/06 09:19:11;;;;;;;6.50;2.53;;;;;;;10.68;95.43;101726.09;5184942;28;20108;-80
2021/11/06 09:21:42;;;;;;;3.80;1.88;;;;;;;10.60;95.01;101730.59;5186827;28;20036;-80
2021/11/06 09:24:13;;;;;;;6.13;2.00;;;;;;;10.62;94.88;101734.91;5186530;28;20029;-78
2021/11/06 09:26:44;;;;;;;7.72;2.17;;;;;;;10.53;96.10;101723.75;5184848;28;20018;-79
2021/11/06 09:29:16;;;;;;;5.45;2.10;;;;;;;10.46;97.27;101723.00;5179934;28;20048;-80
2021/11/06 09:31:46;;;;;;;3.88;1.80;;;;;;;10.83;95.17;101728.44;5184915;28;20029;-78
2021/11/06 09:34:17;;;;;;;5.20;2.08;;;;;;;10.89;95.85;101730.94;5180034;28;20375;-80
2021/11/06 09:36:47;;;;;;;4.60;2.10;;;;;;;10.87;94.45;101730.97;5182370;28;20033;-81
2021/11/06 09:39:17;;;;;;;5.43;1.98;;;;;;;11.02;94.19;101728.06;5184612;28;20025;-79
2021/11/06 09:41:48;;;;;;;4.63;1.85;;;;;;;10.97;93.34;101729.03;5189961;28;20503;-79
2021/11/06 09:44:19;;;;;;;3.78;1.75;;;;;;;10.69;93.60;101735.66;5191457;28;20021;-77
2021/11/06 09:46:50;;;;;;;5.32;2.22;;;;;;;10.70;93.50;101738.25;5194353;28;20017;-80
2021/11/06 09:49:20;;;;;;;5.25;1.63;;;;;;;10.87;92.91;101730.13;5192952;28;20087;-79
2021/11/06 09:51:51;;;;;;;5.10;1.85;;;;;;;10.77;93.10;101741.63;5193765;28;20116;-77
2021/11/06 09:54:21;;;;;;;4.80;1.77;;;;;;;10.86;93.27;101744.09;5210542;23;20050;-76
2021/11/06 09:56:51;;;;;;;2.90;1.50;;;;;;;10.94;93.86;101742.19;5173887;28;20054;-77
2021/11/06 09:59:22;;;;;;;4.63;1.55;;;;;;;10.75;93.75;101736.44;5172670;28;20108;-77
2021/11/06 10:01:52;;;;;;;4.38;1.52;;;;;;;10.87;93.90;101735.34;5172506;28;20030;-77
2021/11/06 10:04:25;;;;;;;2.60;1.42;;;;;;;10.89;94.00;101736.19;5174170;28;20109;-77
2021/11/06 10:06:58;;;;;;;4.25;2.00;;;;;;;10.90;92.76;101740.50;5171558;28;20026;-77
2021/11/06 10:09:31;;;;;;;3.50;1.83;;;;;;;10.65;94.92;101731.41;5176359;28;20021;-77
2021/11/06 10:12:05;;;;;;;5.20;1.95;;;;;;;10.66;93.50;101726.13;5174905;28;20022;-77
2021/11/06 10:14:36;;;;;;;5.22;2.05;;;;;;;10.56;94.58;101734.16;5167579;28;20049;-78
2021/11/06 10:17:07;;;;;;;3.78;1.73;;;;;;;10.70;94.22;101738.25;5167424;28;20038;-77
2021/11/06 10:19:49;;;;;;;3.83;1.83;;;;;;;10.59;94.66;101729.75;5157827;28;20041;-77
2021/11/06 10:22:25;;;;;;;5.22;1.88;;;;;;;10.47;93.89;101724.72;5158307;28;20072;-77
2021/11/06 10:25:02;;;;;;;4.03;1.90;;;;;;;10.35;95.41;101739.75;5172117;28;20022;-77
2021/11/06 10:27:33;;;;;;;4.63;1.80;;;;;;;10.35;95.61;101727.53;5172144;28;20026;-78
2021/11/06 10:30:18;;;;;;;3.47;1.65;;;;;;;10.52;93.84;101727.25;5171720;28;20033;-77
2021/11/06 10:32:58;;;;;;;4.20;1.70;;;;;;;10.45;92.72;101730.84;5171902;28;20165;-76
2021/11/06 10:35:35;;;;;;;4.53;1.45;;;;;;;10.55;92.61;101733.28;5167208;28;20445;-77
2021/11/06 10:38:09;;;;;;;5.68;1.80;;;;;;;10.53;92.03;101731.59;5176030;28;20463;-77
2021/11/06 10:40:43;;;;;;;4.38;1.60;;;;;;;10.51;93.34;101730.75;5181113;28;20039;-77
2021/11/06 10:43:17;;;;;;;2.78;1.27;;;;;;;10.50;92.10;101721.19;5173327;28;20030;-77
2021/11/06 10:45:54;;;;;;;3.15;1.63;;;;;;;10.49;92.54;101724.69;5170954;28;20053;-77
2021/11/06 10:48:32;;;;;;;4.78;1.50;;;;;;;10.38;91.52;101724.84;5174006;28;20129;-77
2021/11/06 10:51:05;;;;;;;5.45;1.77;;;;;;;10.25;93.85;101717.25;5167041;28;20431;-77
2021/11/06 10:53:39;;;;;;;3.22;1.40;;;;;;;10.24;93.25;101726.84;5171106;28;20038;-77
2021/11/06 10:56:33;;;;;;;4.25;1.40;;;;;;;10.32;91.56;101729.34;5177548;28;20022;-77
2021/11/06 10:59:07;;;;;;;4.05;1.70;;;;;;;10.13;92.16;101718.31;5168336;28;20120;-77
2021/11/06 11:01:44;;;;;;;3.20;1.53;;;;;;;10.17;92.90;101708.69;5171335;28;20030;-77
2021/11/06 11:04:17;;;;;;;4.40;1.90;;;;;;;10.13;93.17;101717.47;5172250;28;20475;-77
2021/11/06 11:06:47;;;;;;;4.30;1.77;;;;;;;10.13;94.07;101718.31;5170406;28;20026;-77
2021/11/06 11:09:22;;;;;;;3.88;1.70;;;;;;;10.35;94.77;101706.63;5181064;28;20036;-77
2021/11/06 11:11:56;;;;;;;3.47;1.77;;;;;;;10.39;93.09;101704.81;5174393;28;20040;-78
2021/11/06 11:14:28;;;;;;;3.05;1.65;;;;;;;10.25;92.04;101698.97;5165415;28;20030;-77
2021/11/06 11:17:02;;;;;;;4.53;1.70;;;;;;;10.27;93.25;101692.84;5168762;28;20037;-77
2021/11/06 11:19:38;;;;;;;4.65;1.83;;;;;;;10.36;92.22;101689.19;5172318;28;20476;-77
2021/11/06 11:22:34;;;;;;;7.95;1.83;;;;;;;10.45;91.32;101689.03;5169193;28;20048;-77
2021/11/06 11:25:04;;;;;;;3.75;1.77;;;;;;;10.55;90.58;101685.38;5172062;28;20459;-77
2021/11/06 11:27:35;;;;;;;3.78;1.80;;;;;;;10.54;90.90;101683.66;5166994;28;20407;-77
2021/11/06 11:30:06;;;;;;;6.10;2.22;;;;;;;10.51;92.82;101681.94;5161820;28;20387;-77
2021/11/06 11:32:36;;;;;;;3.42;1.80;;;;;;;10.55;91.40;101674.91;5162107;28;20031;-77
2021/11/06 11:35:07;;;;;;;5.53;2.35;;;;;;;10.60;90.75;101680.91;5159162;28;20034;-77
2021/11/06 11:37:38;;;;;;;3.42;1.70;;;;;;;10.44;91.25;101674.25;5162429;28;20496;-77
2021/11/06 11:40:09;;;;;;;2.90;1.70;;;;;;;10.36;91.14;101673.53;5170283;28;20037;-77